East Chicago, IN

1:01 PM CST on December 25, 2014 (GMT -0600)
Woodmar | Change Station
CLOSE
Current Station
Personal Weather Station
Location: Hammond, IN
Elevation: 615 ft
Nearby Weather Stations

Elev 615 ft 41.59 °N, 87.48 °W | Updated 14 seconds ago

Overcast
Overcast
39.3 °F
Feels Like 37 °F
N
4.0
Wind Variable Wind from SSW
Gusts 12.0 mph

Today
High -- | Low -- °F
--% Chance of Precip.
Yesterday
High -- | Low -- °F
Precip. -- in
7:15 AM 4:24 PM
Waxing Crescent, 18% visible
Pressure 29.98 in
Visibility 12.0 miles
Clouds Overcast 2200 ft
Windchill 37 °F
Dew Point 33 °F
Humidity 78%
Rainfall 0.00 in
Snow Depth Not available.
UV 1 out of 12
Pollen .10 out of 12
Air Quality Not available.
Flu Activity Not available.
METAR KGYY 251745Z 22010G20KT 12SM OVC022 04/M03 A2998

More Conditions Fewer Conditions

Pressure 29.98 in
Visibility 12.0 miles
Clouds Overcast 2200 ft
Windchill 37 °F
Dew Point 33 °F
Humidity 78%
Rainfall 0.00 in
Snow Depth Not available.
UV 1 out of 12
Pollen .10 out of 12
Air Quality Not available.
Flu Activity Not available.
METAR KGYY 251745Z 22010G20KT 12SM OVC022 04/M03 A2998

More Conditions Fewer Conditions

10-Day Weather Forecast

Almanac

Astronomy

Dec. 25, 2014 Rise Set
Actual Time
Civil Twilight
Nautical Twilight
Astronomical Twilight
Moon
Length of Visible Light
Length of Day
Tomorrow will be .
, % of the Moon is Illuminated

Today's Extremes

State Highs State Lows

Community

WunderPhotos

Upload Photos

1,780,364 photos uploaded!

WunderBlogs® & News

Nearby

Air Quality

  Air Quality AQ Index Pollutant
Not available.

Snow Depth

Station Depth Elevation

Earthquake Activity

City Distance Mag. Time & Date
Minimum magnitude displayed is 2.5.

Coastal Water Temperatures

Place Temperature

Nearby Weather Stations